KJAX/JAX METAR and TAF weather

Enter ICAO airport designator
Station Type Date Time Source
KJAX METAR 2021/10/20 06:56 UTC NOAA

KJAX 200656Z 00000KT 10SM CLR 14/14 A3020 RMK AO2 SLP228 T01440139


Station Type Date Time Source
KJAX Decoded METAR 2021/10/20 06:56 UTC NOAA

JACKSONVILLE INTERNATIONAL, FL, United States (KJAX) 30-30N 81-42W 7M
Oct 20, 2021 - 02:56 AM EDT / 2021.10.20 0656 UTC
Wind: Calm:0
Visibility: 10 mile(s):0
Sky conditions: clear
Temperature: 57.9 F (14.4 C)
Dew Point: 57.0 F (13.9 C)
Relative Humidity: 96%
Pressure (altimeter): 30.2 in. Hg (1022 hPa)
ob: KJAX 200656Z 00000KT 10SM CLR 14/14 A3020 RMK AO2 SLP228 T01440139
cycle: 7

Station Type Date Time Source
KJAX TAF 2021/10/20 06:22 UTC NOAA

TAF KJAX 200520Z 2006/2106 00000KT P6SM SCT250
FM201500 08008KT P6SM SCT045 BKN250
FM202300 09002KT P6SM FEW040 BKN250

Example: see airport list